Time;durP1;ratioP1;P1;durP2;ratioP2;P2;SDS_P1;SDS_P2;PMS_P1;PMS_P2;Temp;Humidity;BMP_temperature;BMP_pressure;BME280_temperature;BME280_humidity;BME280_pressure;Samples;Min_cycle;Max_cycle;Signal;HPM_P1;HPM_P2
2022/06/26 00:03:49;;;;;;;3.58;1.80;;;17.00;99.90;;;;;;20743560;28;20046;-80
2022/06/26 00:13:51;;;;;;;3.20;1.67;;;17.00;99.90;;;;;;20746060;28;20030;-80
2022/06/26 00:23:52;;;;;;;4.95;2.33;;;16.90;99.90;;;;;;20756631;28;20045;-80
2022/06/26 00:33:53;;;;;;;4.63;2.78;;;16.80;99.90;;;;;;20724963;28;20060;-81
2022/06/26 00:43:54;;;;;;;3.80;2.25;;;16.80;99.90;;;;;;20734155;28;20034;-81
2022/06/26 00:53:55;;;;;;;3.97;2.10;;;16.80;99.90;;;;;;20747194;28;20033;-82
2022/06/26 01:03:56;;;;;;;5.95;3.15;;;16.70;99.90;;;;;;20735749;28;20041;-83
2022/06/26 01:13:58;;;;;;;7.22;3.83;;;16.80;99.90;;;;;;20749027;28;20037;-83
2022/06/26 01:23:59;;;;;;;6.72;3.42;;;16.80;99.90;;;;;;20721674;28;20052;-83
2022/06/26 01:34:05;;;;;;;7.20;3.25;;;16.90;99.90;;;;;;20755865;28;20033;-83
2022/06/26 01:44:07;;;;;;;6.43;3.15;;;16.90;99.90;;;;;;20723578;28;20049;-83
2022/06/26 01:54:09;;;;;;;8.30;3.75;;;16.70;99.90;;;;;;20732017;28;20168;-83
2022/06/26 02:04:15;;;;;;;6.25;3.00;;;16.60;99.90;;;;;;20725167;28;20050;-83
2022/06/26 02:14:16;;;;;;;4.70;2.87;;;16.50;99.90;;;;;;20720162;28;20361;-83
2022/06/26 02:24:18;;;;;;;5.72;3.17;;;16.40;99.90;;;;;;20728834;28;20038;-82
2022/06/26 02:34:19;;;;;;;11.93;3.55;;;16.40;99.90;;;;;;21451673;23;20038;-81
2022/06/26 02:44:21;;;;;;;7.88;3.28;;;16.40;99.90;;;;;;20729124;28;20045;-81
2022/06/26 02:54:22;;;;;;;6.22;3.05;;;16.20;99.90;;;;;;20740203;28;20038;-81
2022/06/26 03:04:24;;;;;;;6.45;3.20;;;16.10;99.90;;;;;;20754888;28;20050;-80
2022/06/26 03:14:25;;;;;;;8.68;3.50;;;16.00;99.90;;;;;;20757443;28;20045;-81
2022/06/26 03:24:26;;;;;;;7.72;2.80;;;15.80;99.90;;;;;;20737122;28;20064;-81
2022/06/26 03:34:27;;;;;;;7.90;3.50;;;15.80;99.90;;;;;;20725582;28;20052;-81
2022/06/26 03:44:31;;;;;;;7.93;3.22;;;15.70;99.90;;;;;;20765169;28;20038;-81
2022/06/26 03:54:34;;;;;;;9.23;3.72;;;15.60;99.90;;;;;;20747451;28;20046;-81
2022/06/26 04:04:35;;;;;;;5.40;3.28;;;15.60;99.90;;;;;;20724744;28;21160;-81
2022/06/26 04:14:36;;;;;;;6.63;3.47;;;15.50;99.90;;;;;;20744292;28;20037;-81
2022/06/26 04:24:37;;;;;;;8.85;3.53;;;15.50;99.90;;;;;;20734631;28;20388;-81
2022/06/26 04:34:38;;;;;;;4.88;2.20;;;15.50;99.90;;;;;;20731086;28;20044;-81
2022/06/26 04:44:39;;;;;;;3.50;1.98;;;15.40;99.90;;;;;;20726197;28;20381;-81
2022/06/26 04:54:42;;;;;;;3.40;1.77;;;15.50;99.90;;;;;;20722753;28;20030;-83
2022/06/26 05:04:44;;;;;;;6.68;2.65;;;15.60;99.90;;;;;;20711973;28;20045;-81
2022/06/26 05:14:45;;;;;;;6.30;2.60;;;15.80;99.90;;;;;;20720624;28;20043;-80
2022/06/26 05:24:46;;;;;;;5.75;2.78;;;15.90;99.90;;;;;;20743489;28;20052;-80
2022/06/26 05:34:48;;;;;;;5.78;2.08;;;16.00;99.90;;;;;;20747478;28;20045;-81
2022/06/26 05:44:49;;;;;;;4.53;2.22;;;16.10;99.90;;;;;;20746234;28;20404;-81
2022/06/26 05:54:50;;;;;;;8.02;2.05;;;16.10;99.90;;;;;;20728800;28;20034;-81
2022/06/26 06:04:51;;;;;;;5.40;1.80;;;16.30;99.90;;;;;;20742224;28;20034;-80
2022/06/26 06:14:52;;;;;;;5.80;2.30;;;16.40;99.90;;;;;;20757199;28;20018;-81
2022/06/26 06:24:53;;;;;;;4.18;2.30;;;16.50;99.90;;;;;;20735377;28;20041;-80
2022/06/26 06:34:54;;;;;;;1.83;1.17;;;16.70;99.90;;;;;;20753946;28;20512;-80
2022/06/26 06:44:55;;;;;;;2.78;1.15;;;16.90;99.90;;;;;;20752245;28;20041;-81
2022/06/26 06:54:56;;;;;;;4.75;1.27;;;17.00;99.90;;;;;;20726685;28;20508;-81
2022/06/26 07:04:58;;;;;;;1.80;0.82;;;17.00;99.90;;;;;;20750868;28;20045;-80
2022/06/26 07:14:59;;;;;;;3.17;1.33;;;17.00;99.90;;;;;;20712748;28;20365;-81
2022/06/26 07:25:00;;;;;;;1.67;0.80;;;17.00;99.90;;;;;;20728904;28;20038;-81
2022/06/26 07:35:03;;;;;;;3.53;1.27;;;17.00;99.90;;;;;;20750888;28;20170;-81
2022/06/26 07:45:04;;;;;;;3.08;1.30;;;17.10;99.90;;;;;;20732913;28;20477;-81
2022/06/26 07:55:06;;;;;;;4.28;0.85;;;17.10;99.90;;;;;;20731953;28;20037;-81
2022/06/26 08:05:07;;;;;;;2.65;1.23;;;17.10;99.90;;;;;;20731771;28;20386;-81
2022/06/26 08:15:09;;;;;;;2.58;0.93;;;17.20;99.90;;;;;;20729654;28;20056;-80
2022/06/26 08:25:10;;;;;;;1.05;0.55;;;17.30;99.90;;;;;;20723897;28;20041;-80
2022/06/26 08:35:12;;;;;;;1.85;0.85;;;17.30;99.90;;;;;;20731195;28;20057;-81
2022/06/26 08:45:15;;;;;;;1.83;0.85;;;17.20;99.90;;;;;;20732933;28;20057;-81
2022/06/26 08:55:17;;;;;;;3.33;1.25;;;17.30;99.90;;;;;;20722185;28;20057;-80
2022/06/26 09:05:18;;;;;;;2.78;1.00;;;17.40;99.90;;;;;;20733345;28;20041;-81
2022/06/26 09:15:21;;;;;;;4.88;0.80;;;17.70;99.90;;;;;;20748467;28;20037;-80
2022/06/26 09:25:40;;;;;;;1.45;0.75;;;17.70;99.90;;;;;;20746597;28;20056;-81
2022/06/26 09:35:41;;;;;;;1.50;0.47;;;17.70;99.90;;;;;;20755014;28;20041;-81
2022/06/26 09:45:45;;;;;;;0.73;0.25;;;17.80;99.90;;;;;;20742580;28;20481;-81
2022/06/26 09:55:47;;;;;;;1.90;0.90;;;17.90;99.90;;;;;;20724435;28;20042;-80
2022/06/26 10:16:43;;;;;;;1.17;0.65;;;18.20;99.90;;;;;;20748252;28;20045;-81
2022/06/26 10:27:01;;;;;;;2.47;0.65;;;18.50;99.90;;;;;;20747180;28;20037;-81
2022/06/26 10:37:14;;;;;;;2.00;1.08;;;18.90;99.90;;;;;;20722698;28;20723;-80
2022/06/26 10:47:17;;;;;;;2.17;0.88;;;19.40;99.90;;;;;;20728044;28;20034;-80
2022/06/26 10:57:32;;;;;;;1.15;0.45;;;19.80;99.90;;;;;;20755930;28;20064;-80
2022/06/26 11:07:43;;;;;;;1.13;0.55;;;20.00;99.90;;;;;;20747277;28;20560;-80
2022/06/26 11:18:03;;;;;;;2.40;0.60;;;20.10;99.90;;;;;;20742692;28;20059;-80
2022/06/26 11:28:08;;;;;;;1.67;0.60;;;20.00;99.90;;;;;;20733597;28;20048;-81
2022/06/26 11:38:11;;;;;;;1.25;0.52;;;20.10;99.90;;;;;;20710561;28;20060;-83
2022/06/26 11:48:18;;;;;;;1.60;0.73;;;20.30;99.90;;;;;;20734655;28;20059;-81
2022/06/26 11:58:23;;;;;;;1.45;0.50;;;20.10;99.90;;;;;;20734881;28;20049;-80
2022/06/26 12:08:24;;;;;;;1.58;0.65;;;20.10;99.90;;;;;;20714459;28;20048;-80
2022/06/26 12:18:26;;;;;;;1.98;1.00;;;20.20;99.90;;;;;;20737662;28;20052;-80
2022/06/26 12:28:27;;;;;;;1.00;0.60;;;20.30;99.90;;;;;;20723026;28;20405;-80
2022/06/26 12:38:28;;;;;;;3.90;0.70;;;21.10;99.90;;;;;;20735943;28;20054;-80
2022/06/26 12:48:30;;;;;;;2.10;0.55;;;21.10;99.90;;;;;;20718360;28;20456;-80
2022/06/26 12:58:31;;;;;;;1.55;0.77;;;20.80;99.90;;;;;;20719807;28;20042;-80
2022/06/26 13:08:34;;;;;;;1.13;0.55;;;20.50;99.90;;;;;;20750836;28;20038;-81
2022/06/26 13:18:35;;;;;;;1.52;0.63;;;20.60;99.90;;;;;;20714567;28;20296;-80
2022/06/26 13:28:37;;;;;;;3.03;0.70;;;21.00;99.90;;;;;;20724196;28;20061;-80
2022/06/26 13:38:38;;;;;;;1.98;0.90;;;21.80;99.90;;;;;;20747641;28;20053;-79
2022/06/26 13:48:39;;;;;;;1.30;0.50;;;22.40;99.90;;;;;;20748859;28;20038;-80
2022/06/26 13:58:40;;;;;;;5.82;0.52;;;21.90;99.90;;;;;;20750201;28;20041;-79
2022/06/26 14:08:41;;;;;;;3.03;0.70;;;22.10;99.90;;;;;;20713405;28;20041;-79
2022/06/26 14:18:42;;;;;;;1.05;0.50;;;21.60;99.90;;;;;;20732466;28;20046;-78
2022/06/26 14:28:44;;;;;;;1.27;0.40;;;21.30;99.90;;;;;;20732914;28;20104;-79
2022/06/26 14:38:46;;;;;;;1.30;0.60;;;21.20;99.90;;;;;;20748516;28;20077;-79
2022/06/26 14:48:47;;;;;;;1.83;0.55;;;21.40;99.90;;;;;;20722815;28;20480;-78
2022/06/26 14:58:48;;;;;;;0.98;0.50;;;21.40;99.90;;;;;;20728977;28;20092;-80
2022/06/26 15:08:49;;;;;;;1.13;0.60;;;21.10;99.90;;;;;;20748035;28;22524;-80
2022/06/26 15:18:50;;;;;;;3.33;0.60;;;21.10;99.90;;;;;;20748531;28;20064;-80
2022/06/26 15:28:53;;;;;;;1.08;0.50;;;21.00;99.90;;;;;;20741583;28;20030;-80
2022/06/26 15:38:54;;;;;;;1.15;0.60;;;21.00;99.90;;;;;;20728219;28;20374;-80
2022/06/26 15:48:55;;;;;;;2.83;0.95;;;21.10;99.90;;;;;;20748356;28;20069;-81
2022/06/26 15:58:56;;;;;;;2.47;1.10;;;21.00;99.90;;;;;;20767713;28;20045;-81
2022/06/26 16:08:58;;;;;;;2.05;0.82;;;21.10;99.90;;;;;;20741805;28;20057;-83
2022/06/26 16:18:59;;;;;;;2.97;0.80;;;21.10;99.90;;;;;;20726934;28;20030;-79
2022/06/26 16:29:02;;;;;;;4.68;1.10;;;21.00;99.90;;;;;;20726294;28;20042;-79
2022/06/26 16:39:05;;;;;;;3.22;0.80;;;20.80;99.90;;;;;;20756160;28;20513;-78
2022/06/26 16:49:06;;;;;;;2.05;0.68;;;20.90;99.90;;;;;;20691440;28;20050;-78
2022/06/26 16:59:13;;;;;;;1.10;0.40;;;20.90;99.90;;;;;;20741926;28;20045;-78
2022/06/26 17:09:14;;;;;;;6.72;0.73;;;20.90;99.90;;;;;;20752521;28;20044;-78
2022/06/26 17:19:15;;;;;;;1.48;0.57;;;20.80;99.90;;;;;;20749582;28;20033;-78
2022/06/26 17:29:16;;;;;;;1.20;0.45;;;20.50;99.90;;;;;;20739318;28;20420;-78
2022/06/26 17:39:17;;;;;;;5.93;0.75;;;20.40;99.90;;;;;;20719903;28;20045;-78
2022/06/26 17:49:18;;;;;;;1.58;0.80;;;20.50;99.90;;;;;;20735452;28;20049;-78
2022/06/26 17:59:20;;;;;;;1.20;0.40;;;20.50;99.90;;;;;;20726044;28;20037;-78
2022/06/26 18:09:23;;;;;;;1.27;0.50;;;20.50;99.90;;;;;;20730710;28;20556;-78
2022/06/26 18:19:24;;;;;;;1.10;0.43;;;20.50;99.90;;;;;;20748579;28;20583;-78
2022/06/26 18:29:25;;;;;;;1.33;1.00;;;20.50;99.90;;;;;;20737776;28;20404;-78
2022/06/26 18:39:27;;;;;;;1.50;0.57;;;20.30;99.90;;;;;;20749976;28;20037;-78
2022/06/26 18:49:28;;;;;;;4.65;0.70;;;20.30;99.90;;;;;;20735182;28;20064;-78
2022/06/26 18:59:31;;;;;;;1.30;0.40;;;20.30;99.90;;;;;;20697564;28;20397;-78
2022/06/26 19:09:33;;;;;;;1.20;0.57;;;20.10;99.90;;;;;;20701653;28;20622;-78
2022/06/26 19:19:34;;;;;;;1.35;0.40;;;19.90;99.90;;;;;;20725091;28;21443;-79
2022/06/26 19:29:36;;;;;;;1.25;0.30;;;19.90;99.90;;;;;;20710071;28;20334;-78
2022/06/26 19:39:38;;;;;;;1.70;0.60;;;19.80;99.90;;;;;;20693696;28;20401;-79
2022/06/26 20:00:01;;;;;;;1.65;1.15;;;19.60;99.90;;;;;;20701343;28;20061;-79
2022/06/26 20:10:07;;;;;;;1.13;0.30;;;19.40;99.90;;;;;;20714379;28;20042;-79
2022/06/26 20:20:08;;;;;;;1.27;0.43;;;19.40;99.90;;;;;;20698335;28;20089;-79
2022/06/26 20:30:10;;;;;;;1.17;0.43;;;19.30;99.90;;;;;;20712818;28;20047;-79
2022/06/26 20:40:12;;;;;;;1.10;0.40;;;19.20;99.90;;;;;;20700872;28;20073;-79
2022/06/26 20:50:13;;;;;;;2.05;0.57;;;19.00;99.90;;;;;;20691181;28;20540;-79
2022/06/26 21:00:19;;;;;;;0.68;0.40;;;18.70;99.90;;;;;;20715319;28;20444;-79
2022/06/26 21:10:20;;;;;;;0.88;0.40;;;18.60;99.90;;;;;;20683051;28;20042;-79
2022/06/26 21:20:21;;;;;;;1.80;0.63;;;18.50;99.90;;;;;;20672593;28;20034;-79
2022/06/26 21:30:22;;;;;;;2.63;0.70;;;18.40;99.90;;;;;;20701410;28;20047;-79
2022/06/26 21:40:24;;;;;;;1.63;0.40;;;18.30;99.90;;;;;;20718343;28;20057;-79
2022/06/26 21:50:26;;;;;;;1.27;0.60;;;18.30;99.90;;;;;;20704801;28;20493;-80
2022/06/26 22:00:30;;;;;;;1.02;0.40;;;18.10;99.90;;;;;;20715825;28;20039;-80
2022/06/26 22:10:32;;;;;;;1.17;0.60;;;18.10;99.90;;;;;;20700216;28;20505;-79
2022/06/26 22:20:33;;;;;;;1.35;0.60;;;18.00;99.90;;;;;;20778373;28;20093;-79
2022/06/26 22:30:35;;;;;;;3.28;0.65;;;17.90;99.90;;;;;;20727522;28;20046;-79
2022/06/26 22:40:36;;;;;;;1.77;0.88;;;18.00;99.90;;;;;;20711906;28;20060;-79
2022/06/26 22:50:37;;;;;;;2.28;1.10;;;17.90;99.90;;;;;;20723447;28;20440;-80
2022/06/26 23:00:39;;;;;;;1.70;0.63;;;17.90;99.90;;;;;;20729566;28;20046;-80
2022/06/26 23:10:40;;;;;;;1.25;0.60;;;17.80;99.90;;;;;;20723285;28;20037;-80
2022/06/26 23:20:41;;;;;;;0.73;0.63;;;17.80;99.90;;;;;;20719558;28;20041;-80
2022/06/26 23:30:43;;;;;;;2.10;0.77;;;17.80;99.90;;;;;;20733604;28;20053;-80
2022/06/26 23:40:44;;;;;;;2.35;0.55;;;17.80;99.90;;;;;;20715155;28;20053;-80
2022/06/26 23:50:45;;;;;;;1.85;0.90;;;17.80;99.90;;;;;;20703226;28;20089;-80
